Algodones, New Mexico
Current Conditions -  °F | °C
As of 7:52 AM on Friday 19 Dec 2014 (Local Time) from KABQ Reporting Station
Few Clouds Few Clouds  
Wind Chill: 30°   Ceiling: Unl
Heat Index: 34°   Visibility: 10mi
Dew Point: 25°   Wind: 5mph
Humidity: 70%   Direction: 340°NNW
Pressure: 30.22"   Gusts: NA
Location:  35.38°N, 106.48°W
Report Text: KABQ 191452Z 34004KT 10SM FEW035 01/M04 A3022 RMK AO2 SLP233 MTN TOPS OBSC NE-SE T00111039 51015
Loading
Personal Weather Stations






























Interactive Weather Map New forecast layout! Learn more

10-Day Weather Forecast

Advertisements
Track Severe Weather on mobile